createdAt,value
2022-11-19T00:02:02.499Z,6.77
2022-11-19T00:04:30.515Z,6.60
2022-11-19T00:06:58.577Z,6.49
2022-11-19T00:09:26.580Z,6.35
2022-11-19T00:12:12.981Z,6.23
2022-11-19T00:14:41.467Z,6.14
2022-11-19T00:17:09.280Z,6.09
2022-11-19T00:19:37.163Z,6.06
2022-11-19T00:22:05.043Z,6.01
2022-11-19T00:24:32.942Z,5.97
2022-11-19T00:27:00.888Z,5.90
2022-11-19T00:29:28.931Z,5.81
2022-11-19T00:31:57.177Z,5.74
2022-11-19T00:34:25.074Z,5.70
2022-11-19T00:36:53.234Z,5.65
2022-11-19T00:39:22.195Z,5.58
2022-11-19T00:41:50.320Z,5.49
2022-11-19T00:44:18.223Z,5.36
2022-11-19T00:46:46.272Z,5.25
2022-11-19T00:49:14.193Z,5.16
2022-11-19T00:51:42.257Z,5.11
2022-11-19T00:54:11.153Z,5.08
2022-11-19T00:56:39.093Z,5.07
2022-11-19T00:59:07.456Z,5.03
2022-11-19T01:01:35.403Z,4.98
2022-11-19T01:04:03.574Z,4.95
2022-11-19T01:06:31.444Z,4.93
2022-11-19T01:08:59.312Z,4.92
2022-11-19T01:11:30.893Z,4.87
2022-11-19T01:13:59.943Z,4.80
2022-11-19T01:16:33.940Z,4.74
2022-11-19T01:19:01.952Z,4.71
2022-11-19T01:21:32.754Z,4.67
2022-11-19T01:24:01.748Z,4.62
2022-11-19T01:26:29.650Z,4.57
2022-11-19T01:28:57.554Z,4.48
2022-11-19T01:31:27.978Z,4.40
2022-11-19T01:33:56.617Z,4.37
2022-11-19T01:36:26.826Z,4.37
2022-11-19T01:38:55.366Z,4.33
2022-11-19T01:41:32.120Z,4.28
2022-11-19T01:44:03.922Z,4.25
2022-11-19T01:46:35.292Z,4.24
2022-11-19T01:49:12.690Z,4.23
2022-11-19T01:51:45.939Z,4.22
2022-11-19T01:54:28.456Z,4.21
2022-11-19T01:57:01.914Z,4.21
2022-11-19T01:59:31.593Z,4.17
2022-11-19T02:02:00.184Z,4.12
2022-11-19T02:04:29.554Z,4.04
2022-11-19T02:06:58.166Z,3.92
2022-11-19T02:09:28.252Z,3.81
2022-11-19T02:12:20.578Z,3.77
2022-11-19T02:15:23.935Z,3.75
2022-11-19T02:18:03.807Z,3.70
2022-11-19T02:21:10.761Z,3.68
2022-11-19T02:23:46.365Z,3.65
2022-11-19T02:26:14.555Z,3.62
2022-11-19T02:28:53.524Z,3.59
2022-11-19T02:31:26.277Z,3.56
2022-11-19T02:34:16.541Z,3.53
2022-11-19T02:36:57.212Z,3.52
2022-11-19T02:39:32.585Z,3.48
2022-11-19T02:42:16.418Z,3.45
2022-11-19T02:45:00.284Z,3.44
2022-11-19T02:47:41.025Z,3.41
2022-11-19T02:50:20.611Z,3.39
2022-11-19T02:52:49.925Z,3.38
2022-11-19T02:55:20.286Z,3.36
2022-11-19T02:57:58.056Z,3.34
2022-11-19T03:01:02.375Z,3.34
2022-11-19T03:03:50.478Z,3.38
2022-11-19T03:06:24.931Z,3.38
2022-11-19T03:08:52.996Z,3.36
2022-11-19T03:11:24.365Z,3.36
2022-11-19T03:14:38.930Z,3.38
2022-11-19T03:17:29.481Z,3.40
2022-11-19T03:20:06.871Z,3.40
2022-11-19T03:23:00.675Z,3.40
2022-11-19T03:25:37.745Z,3.39
2022-11-19T03:28:12.533Z,3.38
2022-11-19T03:30:43.051Z,3.38
2022-11-19T03:33:17.445Z,3.37
2022-11-19T03:35:54.380Z,3.38
2022-11-19T03:38:28.703Z,3.38
2022-11-19T03:40:58.076Z,3.38
2022-11-19T03:43:30.150Z,3.38
2022-11-19T03:46:02.556Z,3.40
2022-11-19T03:48:31.350Z,3.43
2022-11-19T03:51:07.307Z,3.45
2022-11-19T03:53:35.115Z,3.49
2022-11-19T03:56:07.515Z,3.54
2022-11-19T03:58:45.041Z,3.58
2022-11-19T04:01:13.405Z,3.61
2022-11-19T04:04:01.347Z,3.62
2022-11-19T04:06:29.268Z,3.64
2022-11-19T04:08:57.140Z,3.67
2022-11-19T04:13:52.216Z,3.73
2022-11-19T04:16:19.963Z,3.73
2022-11-19T04:18:47.893Z,3.70
2022-11-19T04:21:15.756Z,3.68
2022-11-19T04:23:43.555Z,3.68
2022-11-19T04:26:11.411Z,3.69
2022-11-19T04:28:39.191Z,3.67
2022-11-19T04:31:07.061Z,3.65
2022-11-19T04:33:34.945Z,3.61
2022-11-19T04:36:02.911Z,3.60
2022-11-19T04:38:30.841Z,3.63
2022-11-19T04:40:58.647Z,3.64
2022-11-19T04:43:26.510Z,3.65
2022-11-19T04:45:54.261Z,3.65
2022-11-19T04:48:22.059Z,3.66
2022-11-19T04:50:50.004Z,3.69
2022-11-19T04:53:18.590Z,3.70
2022-11-19T04:55:46.389Z,3.72
2022-11-19T04:58:14.412Z,3.76
2022-11-19T05:00:42.340Z,3.80
2022-11-19T05:03:10.253Z,3.81
2022-11-19T05:05:38.102Z,3.83
2022-11-19T05:08:07.030Z,3.87
2022-11-19T05:10:34.861Z,3.88
2022-11-19T05:13:02.823Z,3.91
2022-11-19T05:15:30.688Z,3.93
2022-11-19T05:17:58.539Z,3.95
2022-11-19T05:20:26.299Z,3.98
2022-11-19T05:22:54.219Z,4.00
2022-11-19T05:25:22.126Z,3.98
2022-11-19T05:27:49.954Z,3.99
2022-11-19T05:30:17.814Z,3.96
2022-11-19T05:32:47.628Z,3.92
2022-11-19T05:35:15.467Z,3.87
2022-11-19T05:37:43.350Z,3.84
2022-11-19T05:40:11.660Z,3.82
2022-11-19T05:42:39.382Z,3.80
2022-11-19T05:45:08.115Z,3.79
2022-11-19T05:47:37.168Z,3.81
2022-11-19T05:50:06.172Z,3.85
2022-11-19T05:52:34.247Z,3.89
2022-11-19T05:55:02.682Z,3.90
2022-11-19T05:57:30.547Z,3.93
2022-11-19T05:59:58.457Z,3.96
2022-11-19T06:02:26.419Z,3.98
2022-11-19T06:04:54.360Z,3.96
2022-11-19T06:07:22.443Z,3.96
2022-11-19T06:09:50.340Z,3.95
2022-11-19T06:12:18.215Z,3.95
2022-11-19T06:14:45.999Z,3.93
2022-11-19T06:17:13.949Z,3.92
2022-11-19T06:19:41.750Z,3.91
2022-11-19T06:22:10.036Z,3.89
2022-11-19T06:24:37.866Z,3.90
2022-11-19T06:27:05.629Z,3.89
2022-11-19T06:29:33.556Z,3.88
2022-11-19T06:32:01.582Z,3.87
2022-11-19T06:34:29.398Z,3.84
2022-11-19T06:36:58.896Z,3.76
2022-11-19T06:39:26.709Z,3.72
2022-11-19T06:42:14.642Z,3.71
2022-11-19T06:44:42.487Z,3.70
2022-11-19T06:47:10.456Z,3.70
2022-11-19T06:49:38.330Z,3.70
2022-11-19T06:52:06.322Z,3.72
2022-11-19T06:54:35.818Z,3.75
2022-11-19T06:57:07.090Z,3.77
2022-11-19T06:59:35.284Z,3.76
2022-11-19T07:02:03.264Z,3.75
2022-11-19T07:04:31.299Z,3.74
2022-11-19T07:06:59.301Z,3.75
2022-11-19T07:09:27.256Z,3.79
2022-11-19T07:11:55.029Z,3.82
2022-11-19T07:14:22.877Z,3.86
2022-11-19T07:16:50.711Z,3.90
2022-11-19T07:19:19.595Z,3.91
2022-11-19T07:21:47.864Z,3.92
2022-11-19T07:24:18.025Z,3.94
2022-11-19T07:26:45.829Z,3.97
2022-11-19T07:29:15.243Z,4.01
2022-11-19T07:31:43.363Z,4.03
2022-11-19T07:34:11.359Z,4.01
2022-11-19T07:36:39.282Z,4.01
2022-11-19T07:39:07.171Z,4.03
2022-11-19T07:41:53.652Z,4.05
2022-11-19T07:44:21.549Z,4.06
2022-11-19T07:46:49.417Z,4.08
2022-11-19T07:49:17.951Z,4.09
2022-11-19T07:51:46.201Z,4.08
2022-11-19T07:54:14.348Z,4.08
2022-11-19T07:56:42.784Z,4.08
2022-11-19T07:59:11.603Z,4.09
2022-11-19T08:01:39.616Z,4.11
2022-11-19T08:04:07.612Z,4.14
2022-11-19T08:06:35.574Z,4.16
2022-11-19T08:09:04.892Z,4.19
2022-11-19T08:11:32.795Z,4.18
2022-11-19T08:14:03.855Z,4.19
2022-11-19T08:16:52.015Z,4.21
2022-11-19T08:19:21.401Z,4.24
2022-11-19T08:21:52.526Z,4.26
2022-11-19T08:24:21.002Z,4.22
2022-11-19T08:26:50.079Z,4.16
2022-11-19T08:29:22.165Z,4.12
2022-11-19T08:31:51.025Z,4.10
2022-11-19T08:34:22.252Z,4.13
2022-11-19T08:36:50.574Z,4.17
2022-11-19T08:39:18.678Z,4.19
2022-11-19T08:42:05.296Z,4.20
2022-11-19T08:44:33.353Z,4.20
2022-11-19T08:47:01.237Z,4.15
2022-11-19T08:49:31.389Z,4.11
2022-11-19T08:51:59.517Z,4.10
2022-11-19T08:54:27.462Z,4.09
2022-11-19T08:56:55.314Z,4.08
2022-11-19T08:59:23.167Z,4.06
2022-11-19T09:01:51.227Z,4.07
2022-11-19T09:04:19.444Z,4.03
2022-11-19T09:06:47.723Z,4.00
2022-11-19T09:09:15.711Z,4.03
2022-11-19T09:11:43.776Z,4.05
2022-11-19T09:14:11.789Z,4.05
2022-11-19T09:16:39.795Z,4.07
2022-11-19T09:19:07.677Z,4.06
2022-11-19T09:21:35.626Z,4.03
2022-11-19T09:24:03.694Z,3.98
2022-11-19T09:26:31.533Z,3.94
2022-11-19T09:28:59.335Z,3.93
2022-11-19T09:31:27.307Z,3.92
2022-11-19T09:33:56.087Z,3.95
2022-11-19T09:36:24.031Z,3.96
2022-11-19T09:38:57.624Z,3.96
2022-11-19T09:41:45.853Z,3.96
2022-11-19T09:44:44.695Z,3.95
2022-11-19T09:47:47.833Z,3.96
2022-11-19T09:50:25.119Z,3.99
2022-11-19T09:53:05.278Z,4.00
2022-11-19T09:55:41.799Z,3.99
2022-11-19T09:58:34.977Z,3.95
2022-11-19T10:01:03.105Z,3.91
2022-11-19T10:03:33.842Z,3.90
2022-11-19T10:06:35.029Z,3.89
2022-11-19T10:09:27.808Z,3.89
2022-11-19T10:12:22.254Z,3.91
2022-11-19T10:15:08.452Z,3.93
2022-11-19T10:17:45.734Z,3.97
2022-11-19T10:20:24.624Z,4.02
2022-11-19T10:23:47.495Z,4.06
2022-11-19T10:26:17.785Z,4.07
2022-11-19T10:29:15.920Z,4.05
2022-11-19T10:31:49.610Z,4.03
2022-11-19T10:34:33.761Z,4.07
2022-11-19T10:37:17.096Z,4.10
2022-11-19T10:39:57.442Z,4.13
2022-11-19T10:42:38.969Z,4.15
2022-11-19T10:45:39.377Z,4.18
2022-11-19T10:48:18.873Z,4.18
2022-11-19T10:50:47.250Z,4.19
2022-11-19T10:53:38.013Z,4.21
2022-11-19T10:56:12.753Z,4.25
2022-11-19T10:58:43.988Z,4.30
2022-11-19T11:01:28.521Z,4.34
2022-11-19T11:04:19.706Z,4.33
2022-11-19T11:07:01.410Z,4.31
2022-11-19T11:09:39.751Z,4.30
2022-11-19T11:12:38.555Z,4.29
2022-11-19T11:15:22.602Z,4.27
2022-11-19T11:18:01.429Z,4.27
2022-11-19T11:20:31.060Z,4.29
2022-11-19T11:23:11.053Z,4.29
2022-11-19T11:25:40.508Z,4.30
2022-11-19T11:28:14.885Z,4.30
2022-11-19T11:30:54.107Z,4.31
2022-11-19T11:33:36.140Z,4.31
2022-11-19T11:36:07.795Z,4.34
2022-11-19T11:38:48.411Z,4.37
2022-11-19T11:44:20.813Z,4.45
2022-11-19T11:46:52.277Z,4.45
2022-11-19T11:49:38.988Z,4.47
2022-11-19T11:52:09.989Z,4.49
2022-11-19T11:54:53.658Z,4.51
2022-11-19T11:57:25.258Z,4.53
2022-11-19T11:59:53.383Z,4.56
2022-11-19T12:02:32.541Z,4.58
2022-11-19T12:05:07.322Z,4.60
2022-11-19T12:07:55.516Z,4.63
2022-11-19T12:10:30.185Z,4.67
2022-11-19T12:13:20.205Z,4.70
2022-11-19T12:16:09.694Z,4.70
2022-11-19T12:18:50.478Z,4.71
2022-11-19T12:21:32.287Z,4.75
2022-11-19T12:24:30.742Z,4.81
2022-11-19T12:27:17.419Z,4.86
2022-11-19T12:30:02.309Z,4.92
2022-11-19T12:32:49.172Z,4.96
2022-11-19T12:35:25.576Z,4.98
2022-11-19T12:38:05.547Z,5.01
2022-11-19T12:40:44.987Z,5.02
2022-11-19T12:43:18.898Z,5.04
2022-11-19T12:45:55.962Z,5.06
2022-11-19T12:48:37.874Z,5.10
2022-11-19T12:51:17.685Z,5.15
2022-11-19T12:53:54.520Z,5.19
2022-11-19T12:56:46.813Z,5.23
2022-11-19T12:59:45.636Z,5.25
2022-11-19T13:02:43.058Z,5.26
2022-11-19T13:05:17.801Z,5.29
2022-11-19T13:08:26.907Z,5.33
2022-11-19T13:11:29.312Z,5.35
2022-11-19T13:14:02.888Z,5.37
2022-11-19T13:16:34.504Z,5.38
2022-11-19T13:19:25.768Z,5.38
2022-11-19T13:22:06.353Z,5.37
2022-11-19T13:24:41.504Z,5.38
2022-11-19T13:27:23.094Z,5.40
2022-11-19T13:30:14.338Z,5.41
2022-11-19T13:32:59.075Z,5.41
2022-11-19T13:35:41.995Z,5.40
2022-11-19T13:38:16.940Z,5.38
2022-11-19T13:41:26.687Z,5.38
2022-11-19T13:44:17.174Z,5.39
2022-11-19T13:46:57.329Z,5.40
2022-11-19T13:49:39.467Z,5.41
2022-11-19T13:52:15.894Z,5.41
2022-11-19T13:54:45.341Z,5.40
2022-11-19T13:57:33.761Z,5.39
2022-11-19T14:00:08.900Z,5.41
2022-11-19T14:02:55.771Z,5.43
2022-11-19T14:05:38.597Z,5.45
2022-11-19T14:08:24.853Z,5.47
2022-11-19T14:11:14.689Z,5.47
2022-11-19T14:14:05.504Z,5.47
2022-11-19T14:17:04.073Z,5.47
2022-11-19T14:20:07.470Z,5.47
2022-11-19T14:23:00.544Z,5.47
2022-11-19T14:26:01.647Z,5.49
2022-11-19T14:28:50.473Z,5.49
2022-11-19T14:31:21.538Z,5.48
2022-11-19T14:33:50.346Z,5.48
2022-11-19T14:36:46.739Z,5.48
2022-11-19T14:39:23.140Z,5.48
2022-11-19T14:42:18.905Z,5.48
2022-11-19T14:45:06.644Z,5.49
2022-11-19T14:47:42.511Z,5.48
2022-11-19T14:50:30.967Z,5.50
2022-11-19T14:53:01.153Z,5.51
2022-11-19T14:55:31.571Z,5.54
2022-11-19T14:58:06.501Z,5.54
2022-11-19T15:00:40.970Z,5.56
2022-11-19T15:03:18.627Z,5.56
2022-11-19T15:05:47.458Z,5.55
2022-11-19T15:08:18.436Z,5.54
2022-11-19T15:11:03.795Z,5.55
2022-11-19T15:13:46.210Z,5.57
2022-11-19T15:16:21.498Z,5.59
2022-11-19T15:19:14.255Z,5.62
2022-11-19T15:22:17.398Z,5.65
2022-11-19T15:24:48.390Z,5.65
2022-11-19T15:27:42.045Z,5.64
2022-11-19T15:30:09.913Z,5.61
2022-11-19T15:33:32.055Z,5.60
2022-11-19T15:36:26.131Z,5.60
2022-11-19T15:39:09.527Z,5.60
2022-11-19T15:41:43.149Z,5.63
2022-11-19T15:44:17.845Z,5.64
2022-11-19T15:46:50.451Z,5.63
2022-11-19T15:49:30.475Z,5.64
2022-11-19T15:52:16.082Z,5.65
2022-11-19T15:54:44.335Z,5.63
2022-11-19T15:57:23.873Z,5.63
2022-11-19T15:59:57.465Z,5.63
2022-11-19T16:02:28.306Z,5.63
2022-11-19T16:04:56.283Z,5.62
2022-11-19T16:07:27.725Z,5.62
2022-11-19T16:09:56.427Z,5.62
2022-11-19T16:12:45.364Z,5.61
2022-11-19T16:15:44.975Z,5.58
2022-11-19T16:18:18.603Z,5.55
2022-11-19T16:20:50.269Z,5.50
2022-11-19T16:23:23.848Z,5.47
2022-11-19T16:25:52.596Z,5.46
2022-11-19T16:28:25.741Z,5.46
2022-11-19T16:31:02.009Z,5.45
2022-11-19T16:33:32.017Z,5.46
2022-11-19T16:36:18.612Z,5.48
2022-11-19T16:38:51.033Z,5.49
2022-11-19T16:41:39.718Z,5.50
2022-11-19T16:44:18.911Z,5.50
2022-11-19T16:46:48.063Z,5.50
2022-11-19T16:50:01.287Z,5.51
2022-11-19T16:52:41.584Z,5.53
2022-11-19T16:55:18.701Z,5.53
2022-11-19T16:57:48.308Z,5.50
2022-11-19T17:00:22.475Z,5.46
2022-11-19T17:02:51.629Z,5.44
2022-11-19T17:05:24.702Z,5.44
2022-11-19T17:08:03.762Z,5.46
2022-11-19T17:10:32.143Z,5.47
2022-11-19T17:13:05.887Z,5.50
2022-11-19T17:15:45.599Z,5.53
2022-11-19T17:18:13.424Z,5.52
2022-11-19T17:20:44.051Z,5.52
2022-11-19T17:23:23.539Z,5.53
2022-11-19T17:25:58.089Z,5.55
2022-11-19T17:28:45.415Z,5.55
2022-11-19T17:31:23.373Z,5.57
2022-11-19T17:33:52.510Z,5.59
2022-11-19T17:36:22.124Z,5.59
2022-11-19T17:38:49.969Z,5.58
2022-11-19T17:41:41.894Z,5.59
2022-11-19T17:44:36.454Z,5.59
2022-11-19T17:47:21.718Z,5.58
2022-11-19T17:49:52.222Z,5.55
2022-11-19T17:52:29.552Z,5.54
2022-11-19T17:55:02.013Z,5.50
2022-11-19T17:57:29.834Z,5.46
2022-11-19T17:59:57.816Z,5.43
2022-11-19T18:02:26.391Z,5.41
2022-11-19T18:04:54.308Z,5.39
2022-11-19T18:07:22.202Z,5.37
2022-11-19T18:09:50.140Z,5.36
2022-11-19T18:12:19.361Z,5.36
2022-11-19T18:14:47.865Z,5.36
2022-11-19T18:17:16.549Z,5.38
2022-11-19T18:19:44.521Z,5.40
2022-11-19T18:22:20.121Z,5.40
2022-11-19T18:24:49.813Z,5.39
2022-11-19T18:27:18.212Z,5.39
2022-11-19T18:29:46.061Z,5.38
2022-11-19T18:32:16.966Z,5.34
2022-11-19T18:34:46.272Z,5.30
2022-11-19T18:37:14.489Z,5.26
2022-11-19T18:39:42.491Z,5.26
2022-11-19T18:42:12.898Z,5.27
2022-11-19T18:44:43.412Z,5.24
2022-11-19T18:47:15.424Z,5.19
2022-11-19T18:49:43.520Z,5.16
2022-11-19T18:52:15.104Z,5.15
2022-11-19T18:54:43.523Z,5.15
2022-11-19T18:57:12.727Z,5.15
2022-11-19T18:59:41.432Z,5.16
2022-11-19T19:02:10.734Z,5.18
2022-11-19T19:04:38.768Z,5.23
2022-11-19T19:07:06.630Z,5.26
2022-11-19T19:09:34.669Z,5.26
2022-11-19T19:12:17.615Z,5.23
2022-11-19T19:14:48.046Z,5.22
2022-11-19T19:17:16.472Z,5.24
2022-11-19T19:19:45.148Z,5.25
2022-11-19T19:22:12.978Z,5.27
2022-11-19T19:24:40.881Z,5.29
2022-11-19T19:27:09.613Z,5.28
2022-11-19T19:29:37.731Z,5.26
2022-11-19T19:32:06.380Z,5.24
2022-11-19T19:34:36.103Z,5.24
2022-11-19T19:37:06.124Z,5.24
2022-11-19T19:39:34.051Z,5.25
2022-11-19T19:42:01.883Z,5.25
2022-11-19T19:44:29.996Z,5.25
2022-11-19T19:46:58.699Z,5.24
2022-11-19T19:49:26.920Z,5.22
2022-11-19T19:51:54.825Z,5.18
2022-11-19T19:54:22.944Z,5.16
2022-11-19T19:56:50.760Z,5.16
2022-11-19T19:59:18.987Z,5.15
2022-11-19T20:01:47.509Z,5.16
2022-11-19T20:04:16.322Z,5.17
2022-11-19T20:06:46.537Z,5.17
2022-11-19T20:09:15.029Z,5.18
2022-11-19T20:11:42.856Z,5.19
2022-11-19T20:14:11.005Z,5.19
2022-11-19T20:16:40.815Z,5.20
2022-11-19T20:19:13.453Z,5.18
2022-11-19T20:21:41.780Z,5.17
2022-11-19T20:24:13.278Z,5.16
2022-11-19T20:26:42.834Z,5.15
2022-11-19T20:29:13.242Z,5.14
2022-11-19T20:31:46.644Z,5.13
2022-11-19T20:34:15.449Z,5.11
2022-11-19T20:36:44.422Z,5.11
2022-11-19T20:39:15.484Z,5.10
2022-11-19T20:42:02.149Z,5.11
2022-11-19T20:44:30.441Z,5.10
2022-11-19T20:47:04.053Z,5.09
2022-11-19T20:49:39.572Z,5.08
2022-11-19T20:52:08.268Z,5.09
2022-11-19T20:54:36.315Z,5.08
2022-11-19T20:57:04.398Z,5.05
2022-11-19T20:59:32.281Z,5.01
2022-11-19T21:02:00.360Z,4.97
2022-11-19T21:04:36.423Z,4.93
2022-11-19T21:07:05.769Z,4.91
2022-11-19T21:09:35.153Z,4.92
2022-11-19T21:12:03.086Z,4.92
2022-11-19T21:14:30.934Z,4.90
2022-11-19T21:16:58.829Z,4.87
2022-11-19T21:19:26.724Z,4.86
2022-11-19T21:21:54.727Z,4.85
2022-11-19T21:24:22.674Z,4.86
2022-11-19T21:26:50.553Z,4.87
2022-11-19T21:29:18.573Z,4.85
2022-11-19T21:31:48.471Z,4.83
2022-11-19T21:34:18.960Z,4.80
2022-11-19T21:36:48.005Z,4.77
2022-11-19T21:39:18.335Z,4.74
2022-11-19T21:41:46.536Z,4.73
2022-11-19T21:44:20.798Z,4.72
2022-11-19T21:46:49.416Z,4.73
2022-11-19T21:49:17.331Z,4.72
2022-11-19T21:51:45.365Z,4.71
2022-11-19T21:54:13.267Z,4.69
2022-11-19T21:56:41.170Z,4.67
2022-11-19T21:59:09.002Z,4.65
2022-11-19T22:01:37.004Z,4.65
2022-11-19T22:04:05.291Z,4.68
2022-11-19T22:06:33.234Z,4.70
2022-11-19T22:09:01.028Z,4.72
2022-11-19T22:11:28.967Z,4.75
2022-11-19T22:14:02.821Z,4.79
2022-11-19T22:16:33.653Z,4.82
2022-11-19T22:19:01.804Z,4.82
2022-11-19T22:21:29.789Z,4.82
2022-11-19T22:23:58.741Z,4.83
2022-11-19T22:26:26.675Z,4.82
2022-11-19T22:28:55.498Z,4.79
2022-11-19T22:31:24.834Z,4.78
2022-11-19T22:33:53.899Z,4.81
2022-11-19T22:36:23.290Z,4.81
2022-11-19T22:38:52.283Z,4.78
2022-11-19T22:41:21.673Z,4.76
2022-11-19T22:43:50.624Z,4.74
2022-11-19T22:46:23.457Z,4.72
2022-11-19T22:48:51.939Z,4.72
2022-11-19T22:51:25.659Z,4.73
2022-11-19T22:53:54.839Z,4.72
2022-11-19T22:56:26.456Z,4.72
2022-11-19T22:58:54.953Z,4.73
2022-11-19T23:01:33.875Z,4.76
2022-11-19T23:04:06.820Z,4.79
2022-11-19T23:06:36.629Z,4.82
2022-11-19T23:09:05.859Z,4.79
2022-11-19T23:11:52.679Z,4.75
2022-11-19T23:14:21.086Z,4.75
2022-11-19T23:16:48.910Z,4.76
2022-11-19T23:19:19.798Z,4.76
2022-11-19T23:21:47.923Z,4.76
2022-11-19T23:24:15.780Z,4.76
2022-11-19T23:26:43.798Z,4.75
2022-11-19T23:29:11.626Z,4.75
2022-11-19T23:31:40.730Z,4.74
2022-11-19T23:34:08.841Z,4.71
2022-11-19T23:36:41.831Z,4.69
2022-11-19T23:39:14.915Z,4.69
2022-11-19T23:41:43.076Z,4.64
2022-11-19T23:44:11.035Z,4.60
2022-11-19T23:46:39.961Z,4.58
2022-11-19T23:49:08.500Z,4.57
2022-11-19T23:51:38.191Z,4.55
2022-11-19T23:54:06.615Z,4.57
2022-11-19T23:56:36.352Z,4.59
2022-11-19T23:59:05.856Z,4.60
